createdAt,value
2023-04-02T00:01:36.889Z,0.40
2023-04-02T00:04:09.050Z,0.30
2023-04-02T00:06:44.772Z,0.40
2023-04-02T00:09:14.728Z,0.30
2023-04-02T00:11:54.758Z,0.30
2023-04-02T00:14:34.312Z,0.30
2023-04-02T00:17:03.197Z,0.20
2023-04-02T00:19:46.638Z,0.20
2023-04-02T00:22:21.395Z,0.20
2023-04-02T00:24:52.708Z,0.20
2023-04-02T00:27:20.595Z,0.20
2023-04-02T00:29:55.802Z,0.10
2023-04-02T00:32:34.932Z,0.10
2023-04-02T00:35:02.327Z,0.00
2023-04-02T00:37:38.881Z,0.10
2023-04-02T00:40:29.378Z,0.00
2023-04-02T00:43:04.357Z,0.00
2023-04-02T00:45:35.750Z,0.00
2023-04-02T00:48:34.828Z,-0.10
2023-04-02T00:51:11.794Z,-0.10
2023-04-02T00:53:41.945Z,-0.10
2023-04-02T00:56:25.952Z,-0.10
2023-04-02T00:58:55.424Z,-0.10
2023-04-02T01:01:26.379Z,-0.10
2023-04-02T01:03:59.042Z,-0.10
2023-04-02T01:06:31.151Z,-0.10
2023-04-02T01:09:26.068Z,-0.10
2023-04-02T01:12:02.197Z,-0.10
2023-04-02T01:14:41.453Z,-0.20
2023-04-02T01:17:35.785Z,-0.20
2023-04-02T01:20:41.764Z,-0.20
2023-04-02T01:23:25.629Z,-0.10
2023-04-02T01:26:09.650Z,-0.10
2023-04-02T01:29:03.798Z,-0.20
2023-04-02T01:31:33.244Z,-0.20
2023-04-02T01:34:02.375Z,-0.20
2023-04-02T01:36:38.108Z,-0.20
2023-04-02T01:39:43.277Z,-0.10
2023-04-02T01:42:24.848Z,-0.10
2023-04-02T01:45:02.344Z,-0.10
2023-04-02T01:47:29.788Z,-0.10
2023-04-02T01:50:10.115Z,-0.20
2023-04-02T01:52:42.370Z,-0.20
2023-04-02T01:55:15.526Z,-0.20
2023-04-02T01:57:44.178Z,-0.20
2023-04-02T02:00:15.790Z,-0.20
2023-04-02T02:02:46.364Z,-0.20
2023-04-02T02:05:15.710Z,-0.20
2023-04-02T02:07:42.986Z,-0.20
2023-04-02T02:10:28.207Z,-0.20
2023-04-02T02:12:59.321Z,-0.20
2023-04-02T02:15:27.213Z,-0.20
2023-04-02T02:18:01.013Z,-0.30
2023-04-02T02:20:29.147Z,-0.30
2023-04-02T02:22:57.608Z,-0.40
2023-04-02T02:25:31.553Z,-0.40
2023-04-02T02:28:13.479Z,-0.40
2023-04-02T02:30:52.365Z,-0.40
2023-04-02T02:33:26.902Z,-0.40
2023-04-02T02:36:07.033Z,-0.30
2023-04-02T02:38:54.206Z,-0.40
2023-04-02T02:41:37.605Z,-0.50
2023-04-02T02:44:20.813Z,-0.40
2023-04-02T02:46:55.120Z,-0.40
2023-04-02T02:49:27.605Z,-0.50
2023-04-02T02:52:09.589Z,-0.40
2023-04-02T02:54:51.185Z,-0.40
2023-04-02T02:57:27.657Z,-0.40
2023-04-02T02:59:58.174Z,-0.40
2023-04-02T03:02:26.746Z,-0.50
2023-04-02T03:04:55.260Z,-0.40
2023-04-02T03:07:26.534Z,-0.40
2023-04-02T03:10:10.804Z,-0.40
2023-04-02T03:13:02.352Z,-0.50
2023-04-02T03:15:56.272Z,-0.50
2023-04-02T03:18:31.778Z,-0.50
2023-04-02T03:21:21.465Z,-0.60
2023-04-02T03:23:59.638Z,-0.50
2023-04-02T03:26:40.801Z,-0.50
2023-04-02T03:29:21.085Z,-0.60
2023-04-02T03:31:55.125Z,-0.60
2023-04-02T03:34:33.593Z,-0.50
2023-04-02T03:37:32.290Z,-0.60
2023-04-02T03:40:07.000Z,-0.60
2023-04-02T03:42:50.928Z,-0.60
2023-04-02T03:45:24.985Z,-0.60
2023-04-02T03:48:04.396Z,-0.60
2023-04-02T03:50:51.124Z,-0.60
2023-04-02T03:53:18.109Z,-0.70
2023-04-02T03:55:45.100Z,-0.70
2023-04-02T03:58:26.730Z,-0.70
2023-04-02T04:01:06.502Z,-0.70
2023-04-02T04:03:41.879Z,-0.70
2023-04-02T04:06:24.991Z,-0.70
2023-04-02T04:08:57.039Z,-0.60
2023-04-02T04:11:32.561Z,-0.70
2023-04-02T04:14:28.110Z,-0.70
2023-04-02T04:17:04.538Z,-0.70
2023-04-02T04:19:40.536Z,-0.70
2023-04-02T04:22:30.449Z,-0.70
2023-04-02T04:25:03.509Z,-0.70
2023-04-02T04:27:44.064Z,-0.70
2023-04-02T04:30:25.425Z,-0.70
2023-04-02T04:33:02.033Z,-0.70
2023-04-02T04:35:35.332Z,-0.70
2023-04-02T04:38:14.457Z,-0.70
2023-04-02T04:40:56.498Z,-0.70
2023-04-02T04:43:38.746Z,-0.70
2023-04-02T04:46:29.078Z,-0.60
2023-04-02T04:49:18.155Z,-0.70
2023-04-02T04:51:49.969Z,-0.60
2023-04-02T04:54:17.475Z,-0.70
2023-04-02T04:56:51.496Z,-0.70
2023-04-02T04:59:39.973Z,-0.60
2023-04-02T05:02:18.250Z,-0.60
2023-04-02T05:04:50.398Z,-0.50
2023-04-02T05:07:30.830Z,-0.50
2023-04-02T05:10:17.232Z,-0.50
2023-04-02T05:13:29.997Z,-0.50
2023-04-02T05:16:23.779Z,-0.50
2023-04-02T05:19:05.180Z,-0.40
2023-04-02T05:21:44.879Z,-0.50
2023-04-02T05:24:36.227Z,-0.40
2023-04-02T05:27:12.630Z,-0.40
2023-04-02T05:29:44.180Z,-0.30
2023-04-02T05:32:19.517Z,-0.30
2023-04-02T05:34:51.666Z,-0.30
2023-04-02T05:37:21.530Z,-0.20
2023-04-02T05:39:55.959Z,-0.20
2023-04-02T05:42:25.530Z,-0.20
2023-04-02T05:44:59.460Z,-0.10
2023-04-02T05:47:31.408Z,-0.10
2023-04-02T05:50:05.772Z,-0.10
2023-04-02T05:52:37.828Z,0.00
2023-04-02T05:55:28.952Z,0.00
2023-04-02T05:58:25.421Z,0.10
2023-04-02T06:01:04.093Z,0.10
2023-04-02T06:03:49.705Z,0.20
2023-04-02T06:06:33.335Z,0.20
2023-04-02T06:09:15.723Z,0.30
2023-04-02T06:12:16.449Z,0.30
2023-04-02T06:14:43.676Z,0.30
2023-04-02T06:17:18.840Z,0.40
2023-04-02T06:19:47.748Z,0.50
2023-04-02T06:22:36.854Z,0.60
2023-04-02T06:25:41.538Z,0.60
2023-04-02T06:28:17.264Z,0.70
2023-04-02T06:30:45.078Z,0.70
2023-04-02T06:33:13.078Z,0.80
2023-04-02T06:35:42.948Z,0.80
2023-04-02T06:38:20.661Z,0.90
2023-04-02T06:40:54.926Z,0.90
2023-04-02T06:43:46.077Z,1.00
2023-04-02T06:46:27.280Z,1.10
2023-04-02T06:49:01.895Z,1.20
2023-04-02T06:51:30.949Z,1.30
2023-04-02T06:53:57.908Z,1.40
2023-04-02T06:56:42.195Z,1.60
2023-04-02T06:59:09.819Z,1.80
2023-04-02T07:01:51.407Z,1.90
2023-04-02T07:04:20.096Z,2.10
2023-04-02T07:06:47.117Z,2.30
2023-04-02T07:09:14.062Z,2.60
2023-04-02T07:11:41.258Z,2.80
2023-04-02T07:14:13.315Z,2.90
2023-04-02T07:16:41.988Z,3.10
2023-04-02T07:19:18.693Z,3.30
2023-04-02T07:21:46.024Z,3.40
2023-04-02T07:24:13.105Z,3.30
2023-04-02T07:26:40.306Z,3.40
2023-04-02T07:29:15.209Z,3.40
2023-04-02T07:31:42.596Z,3.40
2023-04-02T07:34:10.329Z,3.30
2023-04-02T07:36:37.395Z,3.20
2023-04-02T07:39:04.691Z,3.30
2023-04-02T07:41:31.688Z,3.30
2023-04-02T07:43:58.602Z,3.30
2023-04-02T07:46:26.000Z,3.40
2023-04-02T07:48:53.094Z,3.40
2023-04-02T07:51:23.319Z,3.40
2023-04-02T07:53:54.923Z,3.50
2023-04-02T07:56:23.528Z,3.60
2023-04-02T07:58:50.568Z,3.60
2023-04-02T08:01:20.961Z,3.70
2023-04-02T08:03:48.244Z,3.70
2023-04-02T08:06:16.145Z,3.80
2023-04-02T08:08:43.293Z,3.80
2023-04-02T08:11:11.125Z,3.80
2023-04-02T08:13:38.564Z,3.90
2023-04-02T08:16:06.906Z,3.90
2023-04-02T08:18:34.297Z,4.00
2023-04-02T08:21:02.012Z,4.10
2023-04-02T08:23:29.105Z,4.10
2023-04-02T08:25:56.069Z,4.10
2023-04-02T08:28:23.407Z,4.10
2023-04-02T08:30:51.376Z,4.10
2023-04-02T08:33:19.706Z,4.10
2023-04-02T08:35:47.977Z,4.10
2023-04-02T08:38:17.642Z,4.10
2023-04-02T08:40:47.791Z,4.00
2023-04-02T08:43:40.946Z,4.00
2023-04-02T08:46:29.523Z,4.00
2023-04-02T08:49:00.693Z,4.10
2023-04-02T08:51:31.932Z,4.10
2023-04-02T08:54:08.845Z,4.10
2023-04-02T08:57:15.709Z,4.20
2023-04-02T08:59:44.458Z,4.20
2023-04-02T09:02:35.823Z,4.30
2023-04-02T09:05:07.667Z,4.40
2023-04-02T09:07:35.078Z,4.50
2023-04-02T09:10:02.343Z,4.60
2023-04-02T09:12:32.592Z,4.70
2023-04-02T09:15:14.856Z,4.90
2023-04-02T09:17:52.989Z,5.00
2023-04-02T09:20:26.312Z,5.20
2023-04-02T09:22:54.651Z,5.30
2023-04-02T09:25:26.951Z,5.40
2023-04-02T09:27:56.185Z,5.50
2023-04-02T09:30:55.525Z,5.60
2023-04-02T09:33:41.448Z,5.60
2023-04-02T09:36:34.788Z,5.70
2023-04-02T09:39:15.742Z,5.80
2023-04-02T09:41:43.788Z,5.70
2023-04-02T09:44:21.352Z,5.80
2023-04-02T09:46:53.925Z,5.80
2023-04-02T09:49:29.792Z,5.90
2023-04-02T09:52:29.203Z,6.00
2023-04-02T09:55:21.973Z,6.20
2023-04-02T09:57:50.677Z,6.50
2023-04-02T10:00:32.182Z,6.60
2023-04-02T10:03:35.860Z,6.80
2023-04-02T10:06:13.054Z,7.30
2023-04-02T10:08:43.173Z,7.80
2023-04-02T10:11:22.529Z,8.00
2023-04-02T10:13:59.194Z,7.90
2023-04-02T10:16:51.452Z,8.10
2023-04-02T10:19:41.585Z,8.30
2023-04-02T10:22:22.974Z,8.20
2023-04-02T10:24:51.491Z,8.30
2023-04-02T10:27:25.712Z,8.10
2023-04-02T10:30:22.351Z,8.00
2023-04-02T10:33:01.330Z,7.90
2023-04-02T10:35:38.036Z,7.90
2023-04-02T10:38:39.635Z,8.10
2023-04-02T10:41:44.090Z,8.40
2023-04-02T10:44:54.684Z,8.50
2023-04-02T10:47:45.300Z,8.50
2023-04-02T10:50:31.244Z,8.60
2023-04-02T10:53:17.494Z,8.50
2023-04-02T10:55:49.778Z,8.60
2023-04-02T10:58:30.135Z,8.70
2023-04-02T11:01:08.257Z,8.80
2023-04-02T11:04:37.449Z,9.10
2023-04-02T11:07:14.559Z,8.90
2023-04-02T11:09:47.421Z,8.90
2023-04-02T11:12:21.609Z,8.80
2023-04-02T11:14:51.983Z,9.00
2023-04-02T11:17:20.396Z,9.20
2023-04-02T11:19:49.076Z,9.30
2023-04-02T11:22:25.002Z,9.30
2023-04-02T11:24:57.960Z,9.40
2023-04-02T11:27:28.554Z,9.30
2023-04-02T11:30:06.811Z,9.20
2023-04-02T11:32:36.121Z,9.30
2023-04-02T11:35:33.614Z,9.20
2023-04-02T11:38:24.615Z,9.00
2023-04-02T11:40:58.158Z,9.10
2023-04-02T11:43:35.746Z,9.40
2023-04-02T11:46:04.982Z,9.60
2023-04-02T11:48:36.408Z,9.70
2023-04-02T11:51:22.892Z,9.70
2023-04-02T11:53:54.209Z,9.90
2023-04-02T11:56:52.512Z,10.20
2023-04-02T11:59:50.855Z,10.40
2023-04-02T12:02:43.963Z,10.70
2023-04-02T12:05:30.162Z,10.60
2023-04-02T12:08:12.502Z,10.80
2023-04-02T12:11:02.432Z,10.90
2023-04-02T12:13:41.507Z,11.20
2023-04-02T12:16:13.180Z,11.20
2023-04-02T12:18:54.051Z,11.10
2023-04-02T12:21:25.769Z,11.10
2023-04-02T12:23:56.013Z,11.20
2023-04-02T12:26:38.038Z,11.20
2023-04-02T12:29:26.233Z,11.00
2023-04-02T12:31:59.200Z,11.10
2023-04-02T12:34:28.853Z,11.30
2023-04-02T12:37:00.163Z,11.30
2023-04-02T12:39:28.473Z,11.30
2023-04-02T12:41:58.670Z,11.30
2023-04-02T12:44:28.567Z,11.30
2023-04-02T12:46:56.432Z,11.40
2023-04-02T12:49:34.754Z,11.50
2023-04-02T12:52:16.848Z,11.50
2023-04-02T12:54:54.084Z,11.30
2023-04-02T12:57:28.965Z,11.30
2023-04-02T13:00:21.908Z,11.20
2023-04-02T13:02:50.908Z,11.10
2023-04-02T13:05:35.347Z,11.10
2023-04-02T13:08:03.778Z,11.20
2023-04-02T13:10:30.761Z,11.10
2023-04-02T13:13:03.150Z,11.10
2023-04-02T13:15:32.503Z,11.20
2023-04-02T13:18:14.547Z,11.00
2023-04-02T13:20:43.960Z,10.70
2023-04-02T13:23:29.178Z,10.40
2023-04-02T13:26:11.445Z,10.20
2023-04-02T13:28:39.018Z,10.30
2023-04-02T13:31:06.502Z,10.30
2023-04-02T13:33:33.460Z,10.50
2023-04-02T13:36:00.581Z,10.30
2023-04-02T13:38:27.637Z,10.40
2023-04-02T13:40:54.549Z,10.30
2023-04-02T13:43:21.619Z,10.20
2023-04-02T13:45:54.422Z,10.40
2023-04-02T13:48:26.139Z,10.50
2023-04-02T13:50:53.430Z,10.60
2023-04-02T13:53:33.161Z,10.70
2023-04-02T13:56:00.819Z,10.80
2023-04-02T13:58:27.838Z,10.90
2023-04-02T14:00:55.335Z,10.70
2023-04-02T14:03:22.988Z,10.70
2023-04-02T14:06:26.845Z,10.60
2023-04-02T14:09:02.874Z,10.60
2023-04-02T14:11:32.763Z,10.50
2023-04-02T14:14:06.272Z,10.30
2023-04-02T14:17:37.876Z,10.20
2023-04-02T14:20:27.735Z,10.00
2023-04-02T14:23:06.579Z,10.00
2023-04-02T14:26:05.538Z,10.00
2023-04-02T14:29:05.474Z,9.80
2023-04-02T14:31:47.392Z,9.80
2023-04-02T14:34:22.031Z,9.70
2023-04-02T14:37:00.732Z,9.60
2023-04-02T14:40:06.041Z,9.40
2023-04-02T14:42:38.871Z,9.20
2023-04-02T14:45:13.754Z,9.10
2023-04-02T14:47:50.062Z,9.20
2023-04-02T14:50:29.631Z,9.10
2023-04-02T14:53:07.592Z,9.00
2023-04-02T14:55:43.601Z,8.90
2023-04-02T14:58:26.596Z,8.60
2023-04-02T15:01:27.672Z,8.50
2023-04-02T15:04:13.640Z,8.50
2023-04-02T15:06:47.376Z,8.40
2023-04-02T15:09:25.429Z,8.30
2023-04-02T15:11:57.282Z,8.30
2023-04-02T15:14:31.588Z,8.10
2023-04-02T15:16:58.513Z,8.00
2023-04-02T15:19:25.699Z,7.80
2023-04-02T15:22:18.503Z,7.80
2023-04-02T15:25:26.374Z,7.70
2023-04-02T15:28:26.614Z,7.50
2023-04-02T15:30:59.756Z,7.40
2023-04-02T15:33:44.971Z,7.20
2023-04-02T15:36:29.655Z,7.10
2023-04-02T15:39:17.950Z,7.00
2023-04-02T15:42:19.401Z,6.70
2023-04-02T15:45:08.679Z,6.50
2023-04-02T15:47:53.441Z,6.30
2023-04-02T15:50:49.826Z,6.20
2023-04-02T15:53:31.334Z,6.10
2023-04-02T15:56:23.006Z,6.00
2023-04-02T15:59:11.592Z,5.90
2023-04-02T16:02:20.320Z,5.70
2023-04-02T16:04:47.489Z,5.60
2023-04-02T16:07:49.550Z,5.40
2023-04-02T16:10:40.095Z,5.30
2023-04-02T16:13:29.530Z,5.00
2023-04-02T16:16:02.617Z,4.80
2023-04-02T16:19:00.773Z,4.70
2023-04-02T16:21:38.968Z,4.70
2023-04-02T16:24:13.155Z,4.50
2023-04-02T16:27:03.821Z,4.40
2023-04-02T16:29:51.568Z,4.40
2023-04-02T16:32:42.259Z,4.30
2023-04-02T16:38:30.732Z,4.20
2023-04-02T16:41:15.755Z,4.10
2023-04-02T16:44:34.043Z,4.00
2023-04-02T16:47:21.956Z,4.10
2023-04-02T16:49:57.488Z,4.00
2023-04-02T16:52:49.175Z,3.90
2023-04-02T16:55:38.647Z,3.90
2023-04-02T16:58:23.018Z,3.80
2023-04-02T17:01:21.728Z,3.70
2023-04-02T17:04:02.115Z,3.70
2023-04-02T17:06:29.090Z,3.60
2023-04-02T17:09:15.861Z,3.60
2023-04-02T17:12:19.541Z,3.50
2023-04-02T17:15:02.159Z,3.40
2023-04-02T17:17:29.167Z,3.40
2023-04-02T17:20:01.427Z,3.30
2023-04-02T17:22:31.560Z,3.30
2023-04-02T17:25:03.074Z,3.20
2023-04-02T17:27:36.515Z,3.20
2023-04-02T17:30:17.335Z,3.10
2023-04-02T17:32:44.659Z,3.10
2023-04-02T17:35:37.410Z,3.00
2023-04-02T17:38:21.217Z,3.00
2023-04-02T17:41:18.200Z,3.00
2023-04-02T17:44:13.004Z,2.90
2023-04-02T17:47:07.875Z,2.80
2023-04-02T17:50:09.170Z,2.90
2023-04-02T17:52:53.323Z,2.80
2023-04-02T17:55:54.212Z,2.80
2023-04-02T17:58:48.556Z,2.80
2023-04-02T18:01:30.423Z,2.60
2023-04-02T18:04:20.924Z,2.60
2023-04-02T18:07:07.404Z,2.60
2023-04-02T18:09:52.853Z,2.60
2023-04-02T18:12:28.573Z,2.50
2023-04-02T18:15:11.820Z,2.50
2023-04-02T18:18:01.935Z,2.40
2023-04-02T18:20:48.517Z,2.40
2023-04-02T18:23:44.884Z,2.40
2023-04-02T18:26:38.265Z,2.30
2023-04-02T18:29:31.179Z,2.20
2023-04-02T18:32:36.259Z,2.30
2023-04-02T18:35:14.413Z,2.20
2023-04-02T18:38:01.851Z,2.20
2023-04-02T18:40:39.110Z,2.10
2023-04-02T18:43:32.389Z,2.10
2023-04-02T18:46:06.467Z,2.00
2023-04-02T18:48:48.609Z,2.00
2023-04-02T18:51:22.135Z,1.90
2023-04-02T18:54:18.012Z,1.80
2023-04-02T18:56:45.655Z,1.70
2023-04-02T18:59:28.584Z,1.60
2023-04-02T19:01:57.575Z,1.60
2023-04-02T19:04:31.121Z,1.70
2023-04-02T19:07:14.203Z,1.70
2023-04-02T19:09:44.308Z,1.70
2023-04-02T19:12:23.617Z,1.70
2023-04-02T19:14:52.514Z,1.60
2023-04-02T19:17:28.672Z,1.70
2023-04-02T19:20:15.855Z,1.70
2023-04-02T19:23:13.092Z,1.60
2023-04-02T19:26:15.578Z,1.60
2023-04-02T19:29:13.614Z,1.50
2023-04-02T19:31:53.234Z,1.50
2023-04-02T19:34:46.704Z,1.40
2023-04-02T19:37:39.492Z,1.50
2023-04-02T19:40:51.658Z,1.40
2023-04-02T19:43:18.643Z,1.40
2023-04-02T19:45:49.511Z,1.40
2023-04-02T19:48:22.223Z,1.40
2023-04-02T19:50:50.080Z,1.30
2023-04-02T19:53:17.949Z,1.30
2023-04-02T19:55:46.150Z,1.20
2023-04-02T19:58:28.094Z,1.20
2023-04-02T20:00:55.714Z,1.10
2023-04-02T20:03:22.924Z,1.20
2023-04-02T20:05:50.444Z,1.10
2023-04-02T20:08:17.631Z,1.10
2023-04-02T20:10:45.740Z,1.10
2023-04-02T20:13:12.893Z,1.10
2023-04-02T20:15:41.115Z,1.10
2023-04-02T20:18:09.419Z,1.10
2023-04-02T20:20:37.831Z,1.00
2023-04-02T20:23:05.261Z,1.00
2023-04-02T20:25:32.217Z,1.00
2023-04-02T20:28:00.939Z,1.00
2023-04-02T20:30:27.944Z,1.00
2023-04-02T20:32:55.749Z,1.00
2023-04-02T20:35:22.875Z,1.00
2023-04-02T20:37:49.832Z,0.90
2023-04-02T20:40:16.944Z,0.90
2023-04-02T20:42:44.098Z,0.90
2023-04-02T20:45:11.251Z,0.90
2023-04-02T20:47:38.463Z,0.80
2023-04-02T20:50:06.171Z,0.80
2023-04-02T20:52:33.633Z,0.70
2023-04-02T20:55:01.613Z,0.80
2023-04-02T20:57:31.715Z,0.70
2023-04-02T20:59:59.069Z,0.80
2023-04-02T21:02:26.207Z,0.70
2023-04-02T21:04:53.209Z,0.70
2023-04-02T21:07:20.407Z,0.70
2023-04-02T21:09:47.346Z,0.70
2023-04-02T21:12:14.368Z,0.70
2023-04-02T21:14:41.263Z,0.60
2023-04-02T21:17:08.358Z,0.50
2023-04-02T21:19:35.993Z,0.60
2023-04-02T21:22:03.476Z,0.60
2023-04-02T21:24:30.692Z,0.60
2023-04-02T21:26:57.644Z,0.60
2023-04-02T21:29:24.572Z,0.50
2023-04-02T21:31:52.452Z,0.50
2023-04-02T21:34:19.546Z,0.50
2023-04-02T21:36:48.329Z,0.50
2023-04-02T21:39:21.510Z,0.50
2023-04-02T21:41:50.737Z,0.50
2023-04-02T21:44:19.751Z,0.40
2023-04-02T21:46:47.415Z,0.40
2023-04-02T21:49:16.815Z,0.40
2023-04-02T21:51:45.727Z,0.30
2023-04-02T21:54:13.404Z,0.30
2023-04-02T21:56:42.927Z,0.30
2023-04-02T21:59:12.126Z,0.30
2023-04-02T22:01:42.274Z,0.30
2023-04-02T22:04:11.766Z,0.30
2023-04-02T22:06:41.518Z,0.30
2023-04-02T22:09:15.144Z,0.30
2023-04-02T22:11:47.876Z,0.30
2023-04-02T22:14:15.172Z,0.30
2023-04-02T22:16:43.150Z,0.40
2023-04-02T22:19:12.362Z,0.30
2023-04-02T22:21:39.807Z,0.30
2023-04-02T22:24:09.339Z,0.30
2023-04-02T22:26:36.579Z,0.30
2023-04-02T22:29:04.615Z,0.20
2023-04-02T22:31:35.775Z,0.20
2023-04-02T22:34:04.395Z,0.20
2023-04-02T22:36:31.781Z,0.20
2023-04-02T22:39:00.511Z,0.20
2023-04-02T22:41:32.020Z,0.20
2023-04-02T22:44:00.883Z,0.20
2023-04-02T22:46:29.266Z,0.20
2023-04-02T22:48:56.785Z,0.20
2023-04-02T22:51:24.990Z,0.20
2023-04-02T22:53:54.114Z,0.20
2023-04-02T22:56:24.070Z,0.20
2023-04-02T22:58:51.139Z,0.20
2023-04-02T23:01:30.820Z,0.10
2023-04-02T23:03:58.060Z,0.10
2023-04-02T23:06:25.489Z,0.20
2023-04-02T23:08:52.640Z,0.10
2023-04-02T23:11:22.277Z,0.20
2023-04-02T23:13:51.436Z,0.10
2023-04-02T23:16:19.439Z,0.20
2023-04-02T23:18:48.128Z,0.00
2023-04-02T23:21:16.378Z,0.00
2023-04-02T23:23:43.477Z,0.00
2023-04-02T23:26:16.537Z,0.00
2023-04-02T23:28:44.411Z,0.00
2023-04-02T23:31:14.712Z,0.10
2023-04-02T23:33:42.057Z,0.00
2023-04-02T23:36:34.629Z,0.00
2023-04-02T23:39:22.659Z,0.00
2023-04-02T23:41:49.662Z,0.00
2023-04-02T23:44:16.754Z,0.00
2023-04-02T23:46:43.713Z,0.00
2023-04-02T23:49:12.970Z,0.00
2023-04-02T23:51:40.790Z,0.00
2023-04-02T23:54:07.817Z,0.00
2023-04-02T23:56:34.796Z,-0.10
2023-04-02T23:59:01.867Z,-0.10
